Time;durP1;ratioP1;P1;durP2;ratioP2;P2;SDS_P1;SDS_P2;PMS_P1;PMS_P2;Temp;Humidity;BMP_temperature;BMP_pressure;BME280_temperature;BME280_humidity;BME280_pressure;Samples;Min_cycle;Max_cycle;Signal;HPM_P1;HPM_P2
2023/01/25 00:00:42;;;;;;;0.10;0.10;;;;;;;;;;4954611;28;20237;-80
2023/01/25 00:03:10;;;;;;;0.10;0.10;;;;;;;;;;4954941;29;20735;-78
2023/01/25 00:05:39;;;;;;;0.00;0.00;;;;;;;;;;4955571;28;20249;-79
2023/01/25 00:08:09;;;;;;;0.10;0.10;;;;;;;;;;4958313;29;20277;-79
2023/01/25 00:10:37;;;;;;;0.10;0.10;;;;;;;;;;4958676;29;20253;-79
2023/01/25 00:13:05;;;;;;;0.10;0.10;;;;;;;;;;4958602;29;20253;-80
2023/01/25 00:15:34;;;;;;;0.10;0.10;;;;;;;;;;4958447;29;20203;-78
2023/01/25 00:18:02;;;;;;;0.10;0.10;;;;;;;;;;4958167;29;20222;-80
2023/01/25 00:20:31;;;;;;;0.00;0.00;;;;;;;;;;4958264;29;20644;-79
2023/01/25 00:22:59;;;;;;;0.00;0.00;;;;;;;;;;4958385;29;20199;-79
2023/01/25 00:25:29;;;;;;;0.00;0.00;;;;;;;;;;4976381;28;20221;-80
2023/01/25 00:27:57;;;;;;;0.10;0.10;;;;;;;;;;4977191;28;20234;-80
2023/01/25 00:30:26;;;;;;;0.00;0.00;;;;;;;;;;4977624;28;20241;-79
2023/01/25 00:32:58;;;;;;;0.10;0.10;;;;;;;;;;4977401;28;20209;-79
2023/01/25 00:35:31;;;;;;;0.10;0.10;;;;;;;;;;4977588;28;20702;-79
2023/01/25 00:38:02;;;;;;;0.10;0.10;;;;;;;;;;4977280;28;20225;-79
2023/01/25 00:40:31;;;;;;;0.10;0.10;;;;;;;;;;4977240;28;20647;-79
2023/01/25 00:43:00;;;;;;;0.10;0.10;;;;;;;;;;4977603;28;20226;-79
2023/01/25 00:45:29;;;;;;;0.00;0.00;;;;;;;;;;4977491;28;20795;-79
2023/01/25 00:47:57;;;;;;;0.10;0.10;;;;;;;;;;4977009;28;20236;-79
2023/01/25 00:50:25;;;;;;;0.00;0.00;;;;;;;;;;4976829;28;20210;-79
2023/01/25 00:52:54;;;;;;;0.07;0.07;;;;;;;;;;4977191;28;20734;-79
2023/01/25 00:55:22;;;;;;;0.10;0.10;;;;;;;;;;4976612;28;20245;-79
2023/01/25 00:57:52;;;;;;;0.00;0.00;;;;;;;;;;4977093;28;20242;-79
2023/01/25 01:00:20;;;;;;;0.10;0.10;;;;;;;;;;4977074;28;20252;-79
2023/01/25 01:02:49;;;;;;;0.10;0.10;;;;;;;;;;4976980;28;20232;-79
2023/01/25 01:05:17;;;;;;;0.10;0.10;;;;;;;;;;4976956;28;20571;-79
2023/01/25 01:07:46;;;;;;;0.10;0.10;;;;;;;;;;4976590;28;20221;-78
2023/01/25 01:10:14;;;;;;;0.00;0.00;;;;;;;;;;4976974;28;20276;-79
2023/01/25 01:12:43;;;;;;;0.03;0.03;;;;;;;;;;4977068;28;20620;-79
2023/01/25 01:15:12;;;;;;;0.10;0.10;;;;;;;;;;4976735;28;20746;-79
2023/01/25 01:17:41;;;;;;;0.00;0.00;;;;;;;;;;4975937;28;20214;-79
2023/01/25 01:20:10;;;;;;;0.03;0.03;;;;;;;;;;4976406;28;20210;-78
2023/01/25 01:22:38;;;;;;;0.00;0.00;;;;;;;;;;4976252;28;20277;-79
2023/01/25 01:25:07;;;;;;;0.00;0.00;;;;;;;;;;4976614;28;20210;-79
2023/01/25 01:27:36;;;;;;;0.00;0.00;;;;;;;;;;4976490;28;20213;-79
2023/01/25 01:30:05;;;;;;;0.00;0.00;;;;;;;;;;4976410;28;20209;-79
2023/01/25 01:32:36;;;;;;;0.10;0.10;;;;;;;;;;4976501;28;20206;-80
2023/01/25 01:35:05;;;;;;;0.00;0.00;;;;;;;;;;4976277;28;20277;-79
2023/01/25 01:37:33;;;;;;;0.00;0.00;;;;;;;;;;4975973;28;20206;-79
2023/01/25 01:40:02;;;;;;;0.10;0.10;;;;;;;;;;4976507;28;20229;-79
2023/01/25 01:42:30;;;;;;;0.10;0.10;;;;;;;;;;4975861;28;20257;-79
2023/01/25 01:44:59;;;;;;;0.00;0.00;;;;;;;;;;4976097;28;20209;-79
2023/01/25 01:47:29;;;;;;;0.10;0.10;;;;;;;;;;4976280;28;20659;-80
2023/01/25 01:50:00;;;;;;;0.10;0.10;;;;;;;;;;4976080;28;20245;-79
2023/01/25 01:52:31;;;;;;;0.10;0.10;;;;;;;;;;4975733;28;20214;-79
2023/01/25 01:55:01;;;;;;;0.10;0.10;;;;;;;;;;4975828;28;20194;-79
2023/01/25 01:57:31;;;;;;;0.10;0.10;;;;;;;;;;4975650;28;20246;-79
2023/01/25 02:00:03;;;;;;;0.00;0.00;;;;;;;;;;4975812;28;20284;-78
2023/01/25 02:02:32;;;;;;;0.00;0.00;;;;;;;;;;4975893;28;20679;-79
2023/01/25 02:05:04;;;;;;;0.10;0.10;;;;;;;;;;4975938;28;20206;-79
2023/01/25 02:07:34;;;;;;;0.10;0.10;;;;;;;;;;4975773;28;20186;-78
2023/01/25 02:10:03;;;;;;;0.10;0.10;;;;;;;;;;4975806;28;20582;-79
2023/01/25 02:12:32;;;;;;;0.00;0.00;;;;;;;;;;4975750;28;20256;-78
2023/01/25 02:15:00;;;;;;;0.00;0.00;;;;;;;;;;4975571;28;20210;-79
2023/01/25 02:17:30;;;;;;;0.10;0.10;;;;;;;;;;4975584;28;20663;-79
2023/01/25 02:20:01;;;;;;;0.10;0.10;;;;;;;;;;4975312;28;20209;-79
2023/01/25 02:22:34;;;;;;;0.10;0.10;;;;;;;;;;4975550;28;20214;-79
2023/01/25 02:25:06;;;;;;;0.10;0.10;;;;;;;;;;4975186;28;20189;-79
2023/01/25 02:27:37;;;;;;;0.10;0.10;;;;;;;;;;4976071;28;20723;-79
2023/01/25 02:30:06;;;;;;;0.10;0.10;;;;;;;;;;4974651;28;20253;-79
2023/01/25 02:32:35;;;;;;;0.07;0.07;;;;;;;;;;4974918;28;20260;-79
2023/01/25 02:35:03;;;;;;;0.10;0.10;;;;;;;;;;4975399;28;20207;-79
2023/01/25 02:37:32;;;;;;;0.00;0.00;;;;;;;;;;4975211;28;20234;-79
2023/01/25 02:40:00;;;;;;;0.00;0.00;;;;;;;;;;4975251;28;20230;-80
2023/01/25 02:42:34;;;;;;;0.00;0.00;;;;;;;;;;4974745;28;20234;-80
2023/01/25 02:45:03;;;;;;;0.00;0.00;;;;;;;;;;4975234;28;20720;-80
2023/01/25 02:47:31;;;;;;;0.00;0.00;;;;;;;;;;4975117;28;20292;-80
2023/01/25 02:49:59;;;;;;;0.10;0.10;;;;;;;;;;4974874;28;20291;-79
2023/01/25 02:52:28;;;;;;;0.10;0.10;;;;;;;;;;4974835;28;20265;-79
2023/01/25 02:54:56;;;;;;;0.10;0.10;;;;;;;;;;4975056;28;20203;-78
2023/01/25 02:57:25;;;;;;;0.10;0.10;;;;;;;;;;4974699;28;20241;-80
2023/01/25 02:59:54;;;;;;;0.03;0.03;;;;;;;;;;4974867;28;20707;-79
2023/01/25 03:02:23;;;;;;;0.10;0.10;;;;;;;;;;4974432;28;20230;-78
2023/01/25 03:04:51;;;;;;;0.10;0.10;;;;;;;;;;4974546;28;20242;-79
2023/01/25 03:07:20;;;;;;;0.10;0.10;;;;;;;;;;4974600;28;20203;-80
2023/01/25 03:09:48;;;;;;;0.00;0.00;;;;;;;;;;4974592;28;20234;-80
2023/01/25 03:12:17;;;;;;;0.10;0.10;;;;;;;;;;4974602;28;20214;-80
2023/01/25 03:14:45;;;;;;;0.10;0.10;;;;;;;;;;4974634;28;20209;-80
2023/01/25 03:17:15;;;;;;;0.10;0.10;;;;;;;;;;4974423;28;20297;-80
2023/01/25 03:19:43;;;;;;;0.10;0.10;;;;;;;;;;4974702;28;20292;-80
2023/01/25 03:22:12;;;;;;;0.00;0.00;;;;;;;;;;4974483;28;20196;-80
2023/01/25 03:24:40;;;;;;;0.10;0.10;;;;;;;;;;4974399;28;20202;-79
2023/01/25 03:27:13;;;;;;;0.00;0.00;;;;;;;;;;4974602;28;20238;-80
2023/01/25 03:29:41;;;;;;;0.00;0.00;;;;;;;;;;4974428;28;20235;-80
2023/01/25 03:32:10;;;;;;;0.10;0.10;;;;;;;;;;4974651;28;20210;-80
2023/01/25 03:34:40;;;;;;;0.00;0.00;;;;;;;;;;4974319;28;20214;-79
2023/01/25 03:37:08;;;;;;;0.00;0.00;;;;;;;;;;4974680;28;20210;-80
2023/01/25 03:39:36;;;;;;;0.00;0.00;;;;;;;;;;4957620;28;20231;-79
2023/01/25 03:42:05;;;;;;;0.10;0.10;;;;;;;;;;4960315;28;20210;-79
2023/01/25 03:44:33;;;;;;;0.00;0.00;;;;;;;;;;4977986;28;20257;-79
2023/01/25 03:47:02;;;;;;;0.00;0.00;;;;;;;;;;4978031;28;20237;-79
2023/01/25 03:49:30;;;;;;;0.00;0.00;;;;;;;;;;4977993;28;20226;-80
2023/01/25 03:52:00;;;;;;;0.00;0.00;;;;;;;;;;4978088;28;20265;-79
2023/01/25 03:54:29;;;;;;;0.00;0.00;;;;;;;;;;4977992;28;20214;-79
2023/01/25 03:56:57;;;;;;;0.10;0.10;;;;;;;;;;4978116;28;20209;-80
2023/01/25 03:59:26;;;;;;;0.10;0.10;;;;;;;;;;4977809;28;20235;-79
2023/01/25 04:01:54;;;;;;;0.10;0.10;;;;;;;;;;4978027;28;20214;-80
2023/01/25 04:04:23;;;;;;;0.10;0.10;;;;;;;;;;4978051;28;20319;-80
2023/01/25 04:06:51;;;;;;;0.10;0.10;;;;;;;;;;4977858;28;20624;-79
2023/01/25 04:09:21;;;;;;;0.00;0.00;;;;;;;;;;4977964;28;20226;-78
2023/01/25 04:11:50;;;;;;;0.10;0.10;;;;;;;;;;4977475;28;20256;-78
2023/01/25 04:14:18;;;;;;;0.00;0.00;;;;;;;;;;4977458;28;20687;-77
2023/01/25 04:17:04;;;;;;;0.10;0.10;;;;;;;;;;4976187;28;20644;-78
2023/01/25 04:19:32;;;;;;;0.10;0.10;;;;;;;;;;4975417;28;20281;-78
2023/01/25 04:22:01;;;;;;;0.00;0.00;;;;;;;;;;4976425;28;20633;-77
2023/01/25 04:24:30;;;;;;;0.00;0.00;;;;;;;;;;4976848;28;20680;-77
2023/01/25 04:26:59;;;;;;;0.10;0.10;;;;;;;;;;4976412;28;20210;-78
2023/01/25 04:29:27;;;;;;;0.00;0.00;;;;;;;;;;4975212;28;20227;-77
2023/01/25 04:32:08;;;;;;;0.00;0.00;;;;;;;;;;4967557;28;20647;-77
2023/01/25 04:34:37;;;;;;;0.00;0.00;;;;;;;;;;4977506;28;20256;-77
2023/01/25 04:37:05;;;;;;;0.10;0.10;;;;;;;;;;4977107;28;20198;-77
2023/01/25 04:39:35;;;;;;;0.00;0.00;;;;;;;;;;4965806;28;20242;-77
2023/01/25 04:42:04;;;;;;;0.00;0.00;;;;;;;;;;4958597;28;20203;-77
2023/01/25 04:44:32;;;;;;;0.00;0.00;;;;;;;;;;4977140;28;20227;-77
2023/01/25 04:47:00;;;;;;;0.00;0.00;;;;;;;;;;4977220;28;20237;-78
2023/01/25 04:49:29;;;;;;;0.00;0.00;;;;;;;;;;4977868;28;20284;-78
2023/01/25 04:51:57;;;;;;;0.10;0.10;;;;;;;;;;4976333;28;20210;-78
2023/01/25 04:54:26;;;;;;;0.10;0.10;;;;;;;;;;4976962;28;20241;-78
2023/01/25 04:56:55;;;;;;;0.00;0.00;;;;;;;;;;4975520;28;20277;-78
2023/01/25 04:59:24;;;;;;;0.00;0.00;;;;;;;;;;4976360;28;20268;-78
2023/01/25 05:01:52;;;;;;;0.00;0.00;;;;;;;;;;4976715;28;20264;-78
2023/01/25 05:04:21;;;;;;;0.10;0.10;;;;;;;;;;4976239;28;20226;-78
2023/01/25 05:06:49;;;;;;;0.00;0.00;;;;;;;;;;4976810;28;20214;-78
2023/01/25 05:09:18;;;;;;;0.00;0.00;;;;;;;;;;4976848;28;20253;-78
2023/01/25 05:11:46;;;;;;;0.00;0.00;;;;;;;;;;4976552;28;20217;-78
2023/01/25 05:14:16;;;;;;;0.00;0.00;;;;;;;;;;4976222;28;20735;-78
2023/01/25 05:16:44;;;;;;;0.00;0.00;;;;;;;;;;4976900;28;20206;-78
2023/01/25 05:19:13;;;;;;;0.10;0.10;;;;;;;;;;4976393;28;20230;-78
2023/01/25 05:21:59;;;;;;;0.00;0.00;;;;;;;;;;4976850;28;20268;-78
2023/01/25 05:24:28;;;;;;;0.10;0.10;;;;;;;;;;4976313;28;20649;-78
2023/01/25 05:26:59;;;;;;;0.10;0.10;;;;;;;;;;4976385;28;20198;-78
2023/01/25 05:29:29;;;;;;;0.10;0.10;;;;;;;;;;4976095;28;20225;-78
2023/01/25 05:31:58;;;;;;;0.10;0.10;;;;;;;;;;4975605;28;20210;-79
2023/01/25 05:34:27;;;;;;;0.00;0.00;;;;;;;;;;4975485;28;20664;-78
2023/01/25 05:36:55;;;;;;;0.00;0.00;;;;;;;;;;4975438;28;20268;-78
2023/01/25 05:39:24;;;;;;;0.00;0.00;;;;;;;;;;4974906;28;20221;-78
2023/01/25 05:41:52;;;;;;;0.10;0.10;;;;;;;;;;4975012;28;20722;-78
2023/01/25 05:44:20;;;;;;;0.10;0.10;;;;;;;;;;4974967;28;20288;-78
2023/01/25 05:46:50;;;;;;;0.00;0.00;;;;;;;;;;4976222;28;20629;-78
2023/01/25 05:49:19;;;;;;;0.10;0.10;;;;;;;;;;4975184;28;20256;-78
2023/01/25 05:51:48;;;;;;;0.00;0.00;;;;;;;;;;4975207;28;20594;-78
2023/01/25 05:54:18;;;;;;;0.00;0.00;;;;;;;;;;4971886;28;20205;-78
2023/01/25 05:56:46;;;;;;;0.00;0.00;;;;;;;;;;4976124;28;20648;-78
2023/01/25 05:59:16;;;;;;;0.00;0.00;;;;;;;;;;4975272;28;20265;-82
2023/01/25 06:01:47;;;;;;;0.10;0.10;;;;;;;;;;4977053;28;20218;-81
2023/01/25 06:04:17;;;;;;;0.10;0.10;;;;;;;;;;4975742;28;20233;-80
2023/01/25 06:06:45;;;;;;;0.10;0.10;;;;;;;;;;4976541;28;20258;-80
2023/01/25 06:09:14;;;;;;;0.10;0.10;;;;;;;;;;4975544;28;20237;-79
2023/01/25 06:11:43;;;;;;;0.00;0.00;;;;;;;;;;4975511;28;20206;-79
2023/01/25 06:14:12;;;;;;;0.00;0.00;;;;;;;;;;4975936;28;20213;-78
2023/01/25 06:16:41;;;;;;;0.10;0.10;;;;;;;;;;4975815;28;20257;-79
2023/01/25 06:19:09;;;;;;;0.00;0.00;;;;;;;;;;4975528;28;20753;-80
2023/01/25 06:21:39;;;;;;;0.00;0.00;;;;;;;;;;4975376;28;20214;-80
2023/01/25 06:24:08;;;;;;;0.00;0.00;;;;;;;;;;4975470;28;20312;-80
2023/01/25 06:26:36;;;;;;;0.07;0.07;;;;;;;;;;4975626;28;20726;-79
2023/01/25 06:29:05;;;;;;;0.00;0.00;;;;;;;;;;4975258;28;20276;-80
2023/01/25 06:31:34;;;;;;;0.10;0.10;;;;;;;;;;4975388;28;20650;-80
2023/01/25 06:34:05;;;;;;;0.07;0.07;;;;;;;;;;4975320;28;20292;-80
2023/01/25 06:36:33;;;;;;;0.00;0.00;;;;;;;;;;4975568;28;20562;-80
2023/01/25 06:39:03;;;;;;;0.00;0.00;;;;;;;;;;4975499;28;20229;-79
2023/01/25 06:41:32;;;;;;;0.10;0.10;;;;;;;;;;4975550;28;20610;-80
2023/01/25 06:44:00;;;;;;;0.00;0.00;;;;;;;;;;4975570;28;20578;-80
2023/01/25 06:46:29;;;;;;;0.03;0.03;;;;;;;;;;4975682;28;20206;-80
2023/01/25 06:48:57;;;;;;;0.07;0.07;;;;;;;;;;4974708;28;20272;-80
2023/01/25 06:51:26;;;;;;;0.10;0.10;;;;;;;;;;4975698;28;20312;-80
2023/01/25 06:53:54;;;;;;;0.00;0.00;;;;;;;;;;4975404;28;20209;-79
2023/01/25 06:56:25;;;;;;;0.10;0.10;;;;;;;;;;4975966;28;20206;-80
2023/01/25 06:58:53;;;;;;;0.10;0.10;;;;;;;;;;4975941;28;20229;-78
2023/01/25 07:01:25;;;;;;;0.07;0.07;;;;;;;;;;4975520;28;20259;-78
2023/01/25 07:03:55;;;;;;;0.10;0.10;;;;;;;;;;4975614;28;20247;-78
2023/01/25 07:06:24;;;;;;;0.10;0.10;;;;;;;;;;4975536;28;20694;-78
2023/01/25 07:08:52;;;;;;;0.00;0.00;;;;;;;;;;4975284;28;20234;-78
2023/01/25 07:11:21;;;;;;;0.00;0.00;;;;;;;;;;4975594;28;20270;-78
2023/01/25 07:13:50;;;;;;;0.10;0.10;;;;;;;;;;4975530;28;20278;-78
2023/01/25 07:16:20;;;;;;;0.10;0.10;;;;;;;;;;4974979;28;20335;-78
2023/01/25 07:18:49;;;;;;;0.10;0.10;;;;;;;;;;4974672;28;20256;-78
2023/01/25 07:21:19;;;;;;;0.07;0.07;;;;;;;;;;4975194;28;20260;-78
2023/01/25 07:23:48;;;;;;;0.00;0.00;;;;;;;;;;4975668;28;20557;-78
2023/01/25 07:26:17;;;;;;;0.00;0.00;;;;;;;;;;4974991;28;20224;-78
2023/01/25 07:28:46;;;;;;;0.00;0.00;;;;;;;;;;4974721;28;20254;-78
2023/01/25 07:31:16;;;;;;;0.10;0.10;;;;;;;;;;4975163;28;20236;-78
2023/01/25 07:33:48;;;;;;;0.03;0.03;;;;;;;;;;4975237;28;20276;-78
2023/01/25 07:36:16;;;;;;;0.10;0.10;;;;;;;;;;4974901;28;20190;-78
2023/01/25 07:38:45;;;;;;;0.00;0.00;;;;;;;;;;4975294;28;20229;-78
2023/01/25 07:41:15;;;;;;;0.00;0.00;;;;;;;;;;4974966;28;20216;-79
2023/01/25 07:43:43;;;;;;;0.00;0.00;;;;;;;;;;4974684;28;20236;-79
2023/01/25 07:46:13;;;;;;;0.10;0.10;;;;;;;;;;4974277;28;20223;-79
2023/01/25 07:48:46;;;;;;;0.10;0.10;;;;;;;;;;4974660;28;20703;-78
2023/01/25 07:51:26;;;;;;;0.10;0.10;;;;;;;;;;4974636;28;20193;-78
2023/01/25 07:53:55;;;;;;;0.10;0.10;;;;;;;;;;4974582;28;20700;-78
2023/01/25 07:56:24;;;;;;;0.10;0.10;;;;;;;;;;4974975;28;20279;-78
2023/01/25 07:58:53;;;;;;;0.00;0.00;;;;;;;;;;4974804;28;20268;-78
2023/01/25 08:01:23;;;;;;;0.10;0.10;;;;;;;;;;4974325;28;20219;-78
2023/01/25 08:03:54;;;;;;;0.00;0.00;;;;;;;;;;4974960;28;20267;-78
2023/01/25 08:06:26;;;;;;;0.10;0.10;;;;;;;;;;4975281;28;20217;-78
2023/01/25 08:08:55;;;;;;;0.10;0.10;;;;;;;;;;4974942;28;20323;-78
2023/01/25 08:11:24;;;;;;;0.00;0.00;;;;;;;;;;4974736;28;20215;-78
2023/01/25 08:13:53;;;;;;;0.10;0.10;;;;;;;;;;4974989;28;20216;-78
2023/01/25 08:16:23;;;;;;;0.10;0.10;;;;;;;;;;4975208;28;20208;-78
2023/01/25 08:18:52;;;;;;;0.00;0.00;;;;;;;;;;4974610;28;20288;-78
2023/01/25 08:21:23;;;;;;;0.10;0.10;;;;;;;;;;4974805;28;20640;-78
2023/01/25 08:23:51;;;;;;;0.10;0.10;;;;;;;;;;4974537;28;20204;-78
2023/01/25 08:26:20;;;;;;;0.10;0.10;;;;;;;;;;4974835;28;20229;-78
2023/01/25 08:28:48;;;;;;;0.10;0.10;;;;;;;;;;4978444;28;20705;-78
2023/01/25 08:31:18;;;;;;;0.00;0.00;;;;;;;;;;4978272;28;20208;-78
2023/01/25 08:33:47;;;;;;;0.10;0.10;;;;;;;;;;4978173;28;20215;-78
2023/01/25 08:36:17;;;;;;;0.00;0.00;;;;;;;;;;4978209;28;20662;-78
2023/01/25 08:38:47;;;;;;;0.00;0.00;;;;;;;;;;4977575;28;20232;-78
2023/01/25 08:41:16;;;;;;;0.00;0.00;;;;;;;;;;4977897;28;20193;-78
2023/01/25 08:43:45;;;;;;;0.00;0.00;;;;;;;;;;4977297;28;20212;-78
2023/01/25 08:46:14;;;;;;;0.10;0.10;;;;;;;;;;4977288;28;20228;-77
2023/01/25 08:48:42;;;;;;;0.10;0.10;;;;;;;;;;4977265;28;20280;-78
2023/01/25 08:51:12;;;;;;;0.10;0.10;;;;;;;;;;4958101;29;20241;-78
2023/01/25 08:53:41;;;;;;;0.00;0.00;;;;;;;;;;4957693;28;20217;-78
2023/01/25 08:56:11;;;;;;;0.00;0.00;;;;;;;;;;4957818;29;20252;-78
2023/01/25 08:58:41;;;;;;;0.10;0.10;;;;;;;;;;4957835;28;20288;-78
2023/01/25 09:01:10;;;;;;;0.10;0.10;;;;;;;;;;4958006;29;20205;-78
2023/01/25 09:03:40;;;;;;;0.10;0.10;;;;;;;;;;4963865;28;20209;-78
2023/01/25 09:06:09;;;;;;;0.00;0.00;;;;;;;;;;4977347;28;20232;-78
2023/01/25 09:08:37;;;;;;;0.00;0.00;;;;;;;;;;4976638;28;20272;-78
2023/01/25 09:11:07;;;;;;;0.00;0.00;;;;;;;;;;4976727;28;20209;-78
2023/01/25 09:13:37;;;;;;;0.10;0.10;;;;;;;;;;4976895;28;20213;-78
2023/01/25 09:16:06;;;;;;;0.00;0.00;;;;;;;;;;4976620;28;20288;-77
2023/01/25 09:18:36;;;;;;;0.10;0.10;;;;;;;;;;4976803;28;20284;-78
2023/01/25 09:21:06;;;;;;;0.00;0.00;;;;;;;;;;4976555;28;20239;-78
2023/01/25 09:23:35;;;;;;;0.00;0.00;;;;;;;;;;4977099;28;20208;-78
2023/01/25 09:26:18;;;;;;;0.10;0.10;;;;;;;;;;4976572;28;20224;-78
2023/01/25 09:28:49;;;;;;;0.10;0.10;;;;;;;;;;4976585;28;20264;-78
2023/01/25 09:31:18;;;;;;;0.10;0.10;;;;;;;;;;4976904;28;20249;-78
2023/01/25 09:33:51;;;;;;;0.00;0.00;;;;;;;;;;4976362;28;20217;-78
2023/01/25 09:36:19;;;;;;;0.00;0.00;;;;;;;;;;4976210;28;20230;-78
2023/01/25 09:38:48;;;;;;;0.10;0.10;;;;;;;;;;4975728;28;20229;-78
2023/01/25 09:41:22;;;;;;;0.00;0.00;;;;;;;;;;4976427;28;20205;-78
2023/01/25 09:43:59;;;;;;;0.03;0.03;;;;;;;;;;4977045;28;20195;-78
2023/01/25 09:46:42;;;;;;;0.00;0.00;;;;;;;;;;4976364;28;20220;-78
2023/01/25 09:49:19;;;;;;;0.10;0.10;;;;;;;;;;4975969;28;20279;-78
2023/01/25 09:51:54;;;;;;;0.10;0.10;;;;;;;;;;4975882;28;20220;-78
2023/01/25 09:54:23;;;;;;;0.00;0.00;;;;;;;;;;4976101;28;20193;-78
2023/01/25 09:56:52;;;;;;;0.10;0.10;;;;;;;;;;4976112;28;20630;-78
2023/01/25 09:59:25;;;;;;;0.00;0.00;;;;;;;;;;4975783;28;20232;-78
2023/01/25 10:01:56;;;;;;;0.10;0.10;;;;;;;;;;4976019;28;20201;-78
2023/01/25 10:04:26;;;;;;;0.00;0.00;;;;;;;;;;4976227;28;20252;-78
2023/01/25 10:06:57;;;;;;;0.10;0.10;;;;;;;;;;4976314;28;20278;-78
2023/01/25 10:09:34;;;;;;;0.00;0.00;;;;;;;;;;4975675;28;20309;-78
2023/01/25 10:12:06;;;;;;;0.10;0.10;;;;;;;;;;4976031;28;20196;-78
2023/01/25 10:14:36;;;;;;;0.03;0.03;;;;;;;;;;4975573;28;20236;-78
2023/01/25 10:17:08;;;;;;;0.00;0.00;;;;;;;;;;4975810;28;20252;-78
2023/01/25 10:19:44;;;;;;;0.00;0.00;;;;;;;;;;4975446;28;20597;-78
2023/01/25 10:22:15;;;;;;;0.00;0.00;;;;;;;;;;4975702;28;20198;-78
2023/01/25 10:25:01;;;;;;;0.10;0.10;;;;;;;;;;4975585;28;20193;-78
2023/01/25 10:27:34;;;;;;;0.10;0.10;;;;;;;;;;4975031;28;20367;-77
2023/01/25 10:30:14;;;;;;;0.10;0.10;;;;;;;;;;4975436;28;20196;-78
2023/01/25 10:32:43;;;;;;;0.00;0.00;;;;;;;;;;4975840;28;20197;-78
2023/01/25 10:35:25;;;;;;;0.10;0.10;;;;;;;;;;4971346;28;20193;-77
2023/01/25 10:38:05;;;;;;;0.10;0.10;;;;;;;;;;4973420;28;20220;-78
2023/01/25 10:40:39;;;;;;;0.10;0.10;;;;;;;;;;4975459;28;20213;-78
2023/01/25 10:43:12;;;;;;;0.00;0.00;;;;;;;;;;4975525;28;20638;-78
2023/01/25 10:45:43;;;;;;;0.00;0.00;;;;;;;;;;4975330;28;20329;-78
2023/01/25 10:48:14;;;;;;;0.10;0.10;;;;;;;;;;4975269;28;20291;-78
2023/01/25 10:50:45;;;;;;;0.10;0.10;;;;;;;;;;4974482;28;20192;-78
2023/01/25 10:53:21;;;;;;;0.00;0.00;;;;;;;;;;4975292;28;20277;-78
2023/01/25 10:56:18;;;;;;;0.00;0.00;;;;;;;;;;4975277;28;20192;-78
2023/01/25 10:58:47;;;;;;;0.10;0.10;;;;;;;;;;4941000;28;20239;-78
2023/01/25 11:01:27;;;;;;;0.10;0.10;;;;;;;;;;4974900;28;20267;-78
2023/01/25 11:03:55;;;;;;;0.00;0.00;;;;;;;;;;4974787;28;20239;-78
2023/01/25 11:06:31;;;;;;;0.00;0.00;;;;;;;;;;4974814;28;20248;-78
2023/01/25 11:08:59;;;;;;;0.00;0.00;;;;;;;;;;4974994;28;20225;-78
2023/01/25 11:11:32;;;;;;;0.03;0.03;;;;;;;;;;4975004;28;20618;-78
2023/01/25 11:14:00;;;;;;;0.00;0.00;;;;;;;;;;4965800;28;20721;-78
2023/01/25 11:16:35;;;;;;;0.10;0.10;;;;;;;;;;4954879;29;20670;-78
2023/01/25 11:19:04;;;;;;;0.00;0.00;;;;;;;;;;4955550;29;20231;-78
2023/01/25 11:21:33;;;;;;;0.10;0.10;;;;;;;;;;4955545;29;20711;-78
2023/01/25 11:24:03;;;;;;;0.00;0.00;;;;;;;;;;4955451;29;20205;-78
2023/01/25 11:26:32;;;;;;;0.00;0.00;;;;;;;;;;4955089;29;20229;-77
2023/01/25 11:29:08;;;;;;;0.00;0.00;;;;;;;;;;4955282;28;20226;-78
2023/01/25 11:31:40;;;;;;;0.00;0.00;;;;;;;;;;4955262;28;20250;-78
2023/01/25 11:34:11;;;;;;;0.00;0.00;;;;;;;;;;4955684;29;20252;-78
2023/01/25 11:36:44;;;;;;;0.10;0.10;;;;;;;;;;4955341;29;20614;-78
2023/01/25 11:39:30;;;;;;;0.00;0.00;;;;;;;;;;4955139;29;20768;-78
2023/01/25 11:42:04;;;;;;;0.00;0.00;;;;;;;;;;4955250;28;20253;-78
2023/01/25 11:44:47;;;;;;;0.10;0.10;;;;;;;;;;4955174;29;20288;-78
2023/01/25 11:47:23;;;;;;;0.00;0.00;;;;;;;;;;4955265;29;20575;-77
2023/01/25 11:49:58;;;;;;;0.10;0.10;;;;;;;;;;4955087;29;20292;-78
2023/01/25 11:52:31;;;;;;;0.10;0.10;;;;;;;;;;4955085;29;20221;-78
2023/01/25 11:55:07;;;;;;;0.00;0.00;;;;;;;;;;4955100;29;20194;-78
2023/01/25 11:57:42;;;;;;;0.00;0.00;;;;;;;;;;4955236;29;20189;-78
2023/01/25 12:00:22;;;;;;;0.10;0.10;;;;;;;;;;4955434;28;20223;-78
2023/01/25 12:03:03;;;;;;;0.00;0.00;;;;;;;;;;4959104;29;20272;-78
2023/01/25 12:05:39;;;;;;;0.00;0.00;;;;;;;;;;4959142;29;20232;-78
2023/01/25 12:08:16;;;;;;;0.10;0.10;;;;;;;;;;4958886;29;20682;-78
2023/01/25 12:10:50;;;;;;;0.10;0.10;;;;;;;;;;4958632;29;20697;-78
2023/01/25 12:13:20;;;;;;;0.00;0.00;;;;;;;;;;4958687;29;20640;-78
2023/01/25 12:15:57;;;;;;;0.00;0.00;;;;;;;;;;4958718;29;20233;-78
2023/01/25 12:18:43;;;;;;;0.00;0.00;;;;;;;;;;4958713;29;20694;-78
2023/01/25 12:21:17;;;;;;;0.00;0.00;;;;;;;;;;4958565;28;20641;-78
2023/01/25 12:24:04;;;;;;;0.07;0.07;;;;;;;;;;4958263;29;20189;-78
2023/01/25 12:26:39;;;;;;;0.00;0.00;;;;;;;;;;4958587;29;20194;-78
2023/01/25 12:29:16;;;;;;;0.00;0.00;;;;;;;;;;4957992;29;20237;-78
2023/01/25 12:31:50;;;;;;;0.00;0.00;;;;;;;;;;4958618;29;20202;-78
2023/01/25 12:34:22;;;;;;;0.00;0.00;;;;;;;;;;4958396;28;20694;-78
2023/01/25 12:36:52;;;;;;;0.00;0.00;;;;;;;;;;4968781;28;20197;-78
2023/01/25 12:39:23;;;;;;;0.00;0.00;;;;;;;;;;4977095;28;20255;-78
2023/01/25 12:41:55;;;;;;;0.00;0.00;;;;;;;;;;4977858;28;20197;-78
2023/01/25 12:44:26;;;;;;;0.00;0.00;;;;;;;;;;4977560;28;20592;-78
2023/01/25 12:46:58;;;;;;;0.00;0.00;;;;;;;;;;4977371;28;20240;-78
2023/01/25 12:49:31;;;;;;;0.03;0.03;;;;;;;;;;4977799;28;20240;-78
2023/01/25 12:52:02;;;;;;;0.00;0.00;;;;;;;;;;4975589;28;20212;-78
2023/01/25 12:54:33;;;;;;;0.00;0.00;;;;;;;;;;4978072;28;20576;-78
2023/01/25 12:57:08;;;;;;;0.00;0.00;;;;;;;;;;4976530;28;20250;-78
2023/01/25 12:59:40;;;;;;;0.00;0.00;;;;;;;;;;4977236;28;20225;-78
2023/01/25 13:02:17;;;;;;;0.00;0.00;;;;;;;;;;4977069;28;20193;-77
2023/01/25 13:04:53;;;;;;;0.10;0.10;;;;;;;;;;4977371;28;20240;-77
2023/01/25 13:07:28;;;;;;;0.00;0.00;;;;;;;;;;4977422;28;20550;-79
2023/01/25 13:09:59;;;;;;;0.00;0.00;;;;;;;;;;4977246;28;20693;-78
2023/01/25 13:12:28;;;;;;;0.00;0.00;;;;;;;;;;4972442;28;20690;-78
2023/01/25 13:14:56;;;;;;;0.10;0.10;;;;;;;;;;4977360;28;20211;-78
2023/01/25 13:17:37;;;;;;;0.00;0.00;;;;;;;;;;4977389;28;20219;-78
2023/01/25 13:20:32;;;;;;;0.10;0.10;;;;;;;;;;4977292;28;20193;-78
2023/01/25 13:23:01;;;;;;;0.10;0.10;;;;;;;;;;4967083;28;20627;-79
2023/01/25 13:25:30;;;;;;;0.00;0.00;;;;;;;;;;4960883;28;20232;-78
2023/01/25 13:28:17;;;;;;;0.10;0.10;;;;;;;;;;4976606;28;20694;-80
2023/01/25 13:30:52;;;;;;;0.00;0.00;;;;;;;;;;4977310;28;20558;-80
2023/01/25 13:33:33;;;;;;;0.00;0.00;;;;;;;;;;4977307;28;20193;-79
2023/01/25 13:36:16;;;;;;;0.00;0.00;;;;;;;;;;4976501;28;20196;-80
2023/01/25 13:38:46;;;;;;;0.00;0.00;;;;;;;;;;4976899;28;20276;-79
2023/01/25 13:41:16;;;;;;;0.00;0.00;;;;;;;;;;4976960;28;20244;-80
2023/01/25 13:43:46;;;;;;;0.00;0.00;;;;;;;;;;4976728;28;20654;-80
2023/01/25 13:46:17;;;;;;;0.00;0.00;;;;;;;;;;4976518;28;20197;-79
2023/01/25 13:48:48;;;;;;;0.00;0.00;;;;;;;;;;4975874;28;20228;-80
2023/01/25 13:51:18;;;;;;;0.10;0.10;;;;;;;;;;4976041;28;20589;-80
2023/01/25 13:53:57;;;;;;;0.00;0.00;;;;;;;;;;4976137;28;20267;-80
2023/01/25 13:56:27;;;;;;;0.00;0.00;;;;;;;;;;4973388;28;20257;-80
2023/01/25 13:58:55;;;;;;;0.10;0.10;;;;;;;;;;4956845;28;20279;-80
2023/01/25 14:01:24;;;;;;;0.10;0.10;;;;;;;;;;4966279;28;20209;-80
2023/01/25 14:03:55;;;;;;;0.00;0.00;;;;;;;;;;4976351;28;20212;-80
2023/01/25 14:06:24;;;;;;;0.07;0.07;;;;;;;;;;4975653;28;20204;-80
2023/01/25 14:08:53;;;;;;;0.00;0.00;;;;;;;;;;4974243;28;20614;-78
2023/01/25 14:11:24;;;;;;;0.00;0.00;;;;;;;;;;4974528;28;20205;-79
2023/01/25 14:14:00;;;;;;;0.10;0.10;;;;;;;;;;4973163;28;20193;-79
2023/01/25 14:16:44;;;;;;;0.00;0.00;;;;;;;;;;4964912;28;20299;-78
2023/01/25 14:19:31;;;;;;;0.00;0.00;;;;;;;;;;4976319;28;20219;-80
2023/01/25 14:22:26;;;;;;;0.00;0.00;;;;;;;;;;4974176;28;20581;-80
2023/01/25 14:25:11;;;;;;;0.00;0.00;;;;;;;;;;4928691;28;20220;-79
2023/01/25 14:27:44;;;;;;;0.10;0.10;;;;;;;;;;4973768;28;20248;-79
2023/01/25 14:30:20;;;;;;;0.10;0.10;;;;;;;;;;4973834;28;20287;-79
2023/01/25 14:32:49;;;;;;;0.00;0.00;;;;;;;;;;4974004;28;20248;-80
2023/01/25 14:35:37;;;;;;;0.00;0.00;;;;;;;;;;4973253;28;20237;-80
2023/01/25 14:38:27;;;;;;;0.00;0.00;;;;;;;;;;4973457;28;20314;-80
2023/01/25 14:40:58;;;;;;;0.00;0.00;;;;;;;;;;4973892;28;20639;-80
2023/01/25 14:43:29;;;;;;;0.10;0.10;;;;;;;;;;4973862;28;20185;-79
2023/01/25 14:45:57;;;;;;;0.00;0.00;;;;;;;;;;4973929;28;20188;-79
2023/01/25 14:48:36;;;;;;;0.00;0.00;;;;;;;;;;4973741;28;20335;-79
2023/01/25 14:51:06;;;;;;;0.00;0.00;;;;;;;;;;4974167;28;20259;-78
2023/01/25 14:53:34;;;;;;;0.10;0.10;;;;;;;;;;4973773;28;20267;-80
2023/01/25 14:56:03;;;;;;;0.00;0.00;;;;;;;;;;4973287;28;20697;-79
2023/01/25 14:58:32;;;;;;;0.10;0.10;;;;;;;;;;4973763;28;20269;-79
2023/01/25 15:01:03;;;;;;;0.00;0.00;;;;;;;;;;4973344;28;20267;-79
2023/01/25 15:03:31;;;;;;;0.00;0.00;;;;;;;;;;4973645;28;20193;-78
2023/01/25 15:06:03;;;;;;;0.10;0.10;;;;;;;;;;4973758;28;20212;-79